createdAt,value
2022-12-23T00:01:16.094Z,38.97
2022-12-23T00:04:04.198Z,36.10
2022-12-23T00:06:52.240Z,33.03
2022-12-23T00:09:42.568Z,32.70
2022-12-23T00:12:49.526Z,31.23
2022-12-23T00:15:37.441Z,39.33
2022-12-23T00:18:25.263Z,37.72
2022-12-23T00:21:17.470Z,36.33
2022-12-23T00:24:05.684Z,32.58
2022-12-23T00:26:53.511Z,34.10
2022-12-23T00:29:41.563Z,40.28
2022-12-23T00:32:29.433Z,30.88
2022-12-23T00:35:17.384Z,32.65
2022-12-23T00:38:05.408Z,32.13
2022-12-23T00:41:11.810Z,37.97
2022-12-23T00:43:59.837Z,29.92
2022-12-23T00:46:47.824Z,27.75
2022-12-23T00:49:43.050Z,24.98
2022-12-23T00:52:31.205Z,25.30
2022-12-23T00:55:19.667Z,27.35
2022-12-23T00:58:07.490Z,25.88
2022-12-23T01:01:13.741Z,25.33
2022-12-23T01:04:21.245Z,29.80
2022-12-23T01:07:09.534Z,29.13
2022-12-23T01:09:57.845Z,36.20
2022-12-23T01:12:46.184Z,30.35
2022-12-23T01:15:34.203Z,46.30
2022-12-23T01:18:25.725Z,32.97
2022-12-23T01:21:14.138Z,40.70
2022-12-23T01:24:01.975Z,32.30
2022-12-23T01:26:49.768Z,28.10
2022-12-23T01:29:37.650Z,27.95
2022-12-23T01:32:25.494Z,32.63
2022-12-23T01:35:13.310Z,32.67
2022-12-23T01:38:01.406Z,46.08
2022-12-23T01:40:49.207Z,34.75
2022-12-23T01:43:51.752Z,50.10
2022-12-23T01:46:39.856Z,63.47
2022-12-23T01:49:27.683Z,44.85
2022-12-23T01:52:15.598Z,70.75
2022-12-23T01:55:03.994Z,69.55
2022-12-23T01:57:55.417Z,53.80
2022-12-23T02:01:02.402Z,39.50
2022-12-23T02:03:53.909Z,47.63
2022-12-23T02:07:03.595Z,28.98
2022-12-23T02:09:51.383Z,25.83
2022-12-23T02:12:57.056Z,23.45
2022-12-23T02:16:20.127Z,23.23
2022-12-23T02:19:53.525Z,20.30
2022-12-23T02:23:22.966Z,29.85
2022-12-23T02:26:41.661Z,20.80
2022-12-23T02:30:26.112Z,24.27
2022-12-23T02:33:31.996Z,22.85
2022-12-23T02:36:51.558Z,34.33
2022-12-23T02:39:58.997Z,34.05
2022-12-23T02:43:16.061Z,30.90
2022-12-23T02:46:30.556Z,34.72
2022-12-23T02:49:30.374Z,39.17
2022-12-23T02:52:22.287Z,37.40
2022-12-23T02:55:17.789Z,38.05
2022-12-23T02:58:13.099Z,38.15
2022-12-23T03:01:02.227Z,34.88
2022-12-23T03:03:51.573Z,27.63
2022-12-23T03:06:46.660Z,31.38
2022-12-23T03:10:05.223Z,29.80
2022-12-23T03:13:27.827Z,40.50
2022-12-23T03:16:33.657Z,29.77
2022-12-23T03:19:50.260Z,32.05
2022-12-23T03:23:12.562Z,25.92
2022-12-23T03:26:31.191Z,26.73
2022-12-23T03:29:48.597Z,31.67
2022-12-23T03:32:45.870Z,28.20
2022-12-23T03:35:50.478Z,24.27
2022-12-23T03:38:41.415Z,25.52
2022-12-23T03:41:36.044Z,26.10
2022-12-23T03:45:10.802Z,25.27
2022-12-23T03:48:02.620Z,22.77
2022-12-23T03:50:57.067Z,24.45
2022-12-23T03:54:00.437Z,15.77
2022-12-23T03:56:56.864Z,16.65
2022-12-23T03:59:50.543Z,14.60
2022-12-23T04:03:03.106Z,15.77
2022-12-23T04:05:59.844Z,12.95
2022-12-23T04:08:49.539Z,19.00
2022-12-23T04:11:37.819Z,22.40
2022-12-23T04:14:25.696Z,23.30
2022-12-23T04:17:13.891Z,28.83
2022-12-23T04:20:02.052Z,30.52
2022-12-23T04:22:50.116Z,36.78
2022-12-23T04:25:38.049Z,39.38
2022-12-23T04:28:25.873Z,37.50
2022-12-23T04:31:13.965Z,29.92
2022-12-23T04:34:01.911Z,40.58
2022-12-23T04:36:49.680Z,48.42
2022-12-23T04:39:37.607Z,60.67
2022-12-23T04:42:25.903Z,125.43
2022-12-23T04:45:13.846Z,247.15
2022-12-23T04:48:01.737Z,177.05
2022-12-23T04:50:49.790Z,293.65
2022-12-23T04:53:38.202Z,330.27
2022-12-23T04:56:29.149Z,201.73
2022-12-23T04:59:23.786Z,232.05
2022-12-23T05:02:12.183Z,130.27
2022-12-23T05:05:00.650Z,109.85
2022-12-23T05:07:52.677Z,100.88
2022-12-23T05:10:41.973Z,93.75
2022-12-23T05:13:29.784Z,88.47
2022-12-23T05:16:22.517Z,86.18
2022-12-23T05:19:11.173Z,94.35
2022-12-23T05:21:58.947Z,86.63
2022-12-23T05:24:47.205Z,79.18
2022-12-23T05:27:38.068Z,68.10
2022-12-23T05:30:29.059Z,64.55
2022-12-23T05:33:17.084Z,62.42
2022-12-23T05:36:06.411Z,48.97
2022-12-23T05:38:57.961Z,46.75
2022-12-23T05:41:46.398Z,59.03
2022-12-23T05:44:34.538Z,54.08
2022-12-23T05:47:22.458Z,69.05
2022-12-23T05:50:13.845Z,72.82
2022-12-23T05:53:01.735Z,65.38
2022-12-23T05:55:49.771Z,66.05
2022-12-23T05:58:37.997Z,54.50
2022-12-23T06:01:26.082Z,43.75
2022-12-23T06:04:14.212Z,47.20
2022-12-23T06:07:02.206Z,40.42
2022-12-23T06:09:51.331Z,42.72
2022-12-23T06:12:39.613Z,35.42
2022-12-23T06:15:27.881Z,31.52
2022-12-23T06:18:15.856Z,39.83
2022-12-23T06:21:04.334Z,33.50
2022-12-23T06:23:55.336Z,32.60
2022-12-23T06:26:43.769Z,28.30
2022-12-23T06:29:32.329Z,27.17
2022-12-23T06:32:21.011Z,25.33
2022-12-23T06:35:10.162Z,22.15
2022-12-23T06:37:58.466Z,21.35
2022-12-23T06:40:46.545Z,19.55
2022-12-23T06:43:34.641Z,20.23
2022-12-23T06:46:22.887Z,17.40
2022-12-23T06:49:13.665Z,18.20
2022-12-23T06:52:01.953Z,15.68
2022-12-23T06:54:50.510Z,16.85
2022-12-23T06:57:38.643Z,19.52
2022-12-23T07:00:29.769Z,21.05
2022-12-23T07:03:18.302Z,19.75
2022-12-23T07:06:06.702Z,23.98
2022-12-23T07:08:58.272Z,20.98
2022-12-23T07:11:49.370Z,20.13
2022-12-23T07:14:37.471Z,18.73
2022-12-23T07:17:25.451Z,15.40
2022-12-23T07:20:14.900Z,23.75
2022-12-23T07:23:05.090Z,24.00
2022-12-23T07:25:53.123Z,23.27
2022-12-23T07:28:43.398Z,19.45
2022-12-23T07:31:31.949Z,22.67
2022-12-23T07:34:19.921Z,24.38
2022-12-23T07:37:08.045Z,25.35
2022-12-23T07:39:55.994Z,30.27
2022-12-23T07:42:46.043Z,26.67
2022-12-23T07:45:35.239Z,27.63
2022-12-23T07:48:23.229Z,23.98
2022-12-23T07:51:11.480Z,28.33
2022-12-23T07:54:02.723Z,30.77
2022-12-23T07:56:51.040Z,31.73
2022-12-23T07:59:41.591Z,33.70
2022-12-23T08:02:34.130Z,35.30
2022-12-23T08:05:23.002Z,34.78
2022-12-23T08:08:11.220Z,32.80
2022-12-23T08:11:02.613Z,29.38
2022-12-23T08:13:52.868Z,30.67
2022-12-23T08:16:43.996Z,37.50
2022-12-23T08:19:32.614Z,31.70
2022-12-23T08:22:23.742Z,34.10
2022-12-23T08:25:11.917Z,52.78
2022-12-23T08:28:00.200Z,39.97
2022-12-23T08:30:48.345Z,33.03
2022-12-23T08:33:40.944Z,35.75
2022-12-23T08:36:46.181Z,33.28
2022-12-23T08:39:34.387Z,25.02
2022-12-23T08:42:25.203Z,33.90
2022-12-23T08:45:28.539Z,35.08
2022-12-23T08:48:23.170Z,31.48
2022-12-23T08:51:21.449Z,28.70
2022-12-23T08:54:16.257Z,28.05
2022-12-23T08:57:43.173Z,25.23
2022-12-23T09:00:47.369Z,23.23
2022-12-23T09:03:45.215Z,23.10
2022-12-23T09:06:45.964Z,25.00
2022-12-23T09:09:42.236Z,32.42
2022-12-23T09:12:39.067Z,35.30
2022-12-23T09:19:18.268Z,26.50
2022-12-23T09:22:53.412Z,24.17
2022-12-23T09:25:50.564Z,21.23
2022-12-23T09:28:50.184Z,26.13
2022-12-23T09:31:49.883Z,26.27
2022-12-23T09:34:38.847Z,18.88
2022-12-23T09:37:48.294Z,19.45
2022-12-23T09:41:00.780Z,21.00
2022-12-23T09:44:43.273Z,24.08
2022-12-23T09:47:48.657Z,12.57
2022-12-23T09:50:43.184Z,21.92
2022-12-23T09:54:30.686Z,20.40
2022-12-23T09:58:55.618Z,33.90
2022-12-23T10:06:07.024Z,23.52
2022-12-23T10:09:23.714Z,18.70
2022-12-23T10:12:46.920Z,23.63
2022-12-23T10:16:04.904Z,22.02
2022-12-23T10:19:10.376Z,28.52
2022-12-23T10:22:47.010Z,25.40
2022-12-23T10:25:49.769Z,19.77
2022-12-23T10:33:20.564Z,23.65
2022-12-23T10:37:19.878Z,18.88
2022-12-23T10:40:38.615Z,28.08
2022-12-23T10:43:54.527Z,20.67
2022-12-23T10:47:25.635Z,23.40
2022-12-23T10:50:57.954Z,19.10
2022-12-23T10:54:14.242Z,12.57
2022-12-23T10:57:29.549Z,18.35
2022-12-23T11:00:27.725Z,14.25
2022-12-23T11:03:29.193Z,18.63
2022-12-23T11:06:36.590Z,16.13
2022-12-23T11:12:49.898Z,20.98
2022-12-23T11:15:46.834Z,20.80
2022-12-23T11:18:55.772Z,28.35
2022-12-23T11:22:00.627Z,25.30
2022-12-23T11:24:50.956Z,28.15
2022-12-23T11:27:44.363Z,32.38
2022-12-23T11:30:53.488Z,21.93
2022-12-23T11:33:59.521Z,27.20
2022-12-23T11:37:03.664Z,25.65
2022-12-23T11:39:55.682Z,28.75
2022-12-23T11:42:43.768Z,23.65
2022-12-23T11:45:37.227Z,29.25
2022-12-23T11:48:31.520Z,42.15
2022-12-23T11:51:25.983Z,30.10
2022-12-23T11:54:20.451Z,26.48
2022-12-23T11:57:17.851Z,32.55
2022-12-23T12:00:17.405Z,26.58
2022-12-23T12:03:07.694Z,30.60
2022-12-23T12:06:03.954Z,25.27
2022-12-23T12:08:54.382Z,43.10
2022-12-23T12:11:58.381Z,37.90
2022-12-23T12:14:46.553Z,29.45
2022-12-23T12:17:45.367Z,36.60
2022-12-23T12:20:53.257Z,37.28
2022-12-23T12:24:19.540Z,28.55
2022-12-23T12:27:10.740Z,27.08
2022-12-23T12:30:08.096Z,44.22
2022-12-23T12:33:38.468Z,65.65
2022-12-23T12:36:49.724Z,35.67
2022-12-23T12:40:07.563Z,32.10
2022-12-23T12:43:21.106Z,64.63
2022-12-23T12:46:35.157Z,33.42
2022-12-23T12:50:00.961Z,38.88
2022-12-23T12:52:52.880Z,44.60
2022-12-23T12:55:46.377Z,60.25
2022-12-23T12:58:34.376Z,32.83
2022-12-23T13:01:46.267Z,44.95
2022-12-23T13:05:17.417Z,51.95
2022-12-23T13:08:43.380Z,67.80
2022-12-23T13:11:55.483Z,48.90
2022-12-23T13:15:37.998Z,32.40
2022-12-23T13:19:13.207Z,23.98
2022-12-23T13:22:14.937Z,39.63
2022-12-23T13:25:24.036Z,55.42
2022-12-23T13:28:32.652Z,54.45
2022-12-23T13:31:20.424Z,63.60
2022-12-23T13:34:46.594Z,64.72
2022-12-23T13:37:52.968Z,26.02
2022-12-23T13:41:04.573Z,26.75
2022-12-23T13:44:02.896Z,29.05
2022-12-23T13:47:24.477Z,71.03
2022-12-23T13:50:27.104Z,68.72
2022-12-23T13:53:48.366Z,30.52
2022-12-23T13:56:47.245Z,29.98
2022-12-23T13:59:44.892Z,39.42
2022-12-23T14:02:35.958Z,26.83
2022-12-23T14:05:50.893Z,23.15
2022-12-23T14:08:47.611Z,52.13
2022-12-23T14:11:36.888Z,36.53
2022-12-23T14:14:25.907Z,53.83
2022-12-23T14:17:30.650Z,41.05
2022-12-23T14:21:12.219Z,52.92
2022-12-23T14:24:35.638Z,37.55
2022-12-23T14:27:42.946Z,27.15
2022-12-23T14:30:45.752Z,29.23
2022-12-23T14:33:38.350Z,59.30
2022-12-23T14:36:27.086Z,52.22
2022-12-23T14:39:15.024Z,50.88
2022-12-23T14:42:06.778Z,41.63
2022-12-23T14:45:30.557Z,43.22
2022-12-23T14:49:22.549Z,42.38
2022-12-23T14:52:39.349Z,33.35
2022-12-23T14:55:31.562Z,28.95
2022-12-23T14:58:36.881Z,29.92
2022-12-23T15:02:00.497Z,24.40
2022-12-23T15:04:55.065Z,31.02
2022-12-23T15:07:46.659Z,16.90
2022-12-23T15:10:36.809Z,12.63
2022-12-23T15:13:29.318Z,21.05
2022-12-23T15:16:19.093Z,16.73
2022-12-23T15:19:24.878Z,35.42
2022-12-23T15:22:22.146Z,17.35
2022-12-23T15:25:38.655Z,15.27
2022-12-23T15:31:33.607Z,16.73
2022-12-23T15:34:27.797Z,12.23
2022-12-23T15:40:32.008Z,9.05
2022-12-23T15:46:29.704Z,9.85
2022-12-23T15:49:21.820Z,10.02
2022-12-23T15:52:18.082Z,6.75
2022-12-23T15:55:19.854Z,9.55
2022-12-23T15:58:08.495Z,9.57
2022-12-23T16:00:59.336Z,9.45
2022-12-23T16:03:57.603Z,14.80
2022-12-23T16:06:50.875Z,19.35
2022-12-23T16:09:38.867Z,16.75
2022-12-23T16:12:28.048Z,21.75
2022-12-23T16:15:32.330Z,26.60
2022-12-23T16:18:25.742Z,31.90
2022-12-23T16:21:14.900Z,42.40
2022-12-23T16:24:08.785Z,40.28
2022-12-23T16:26:56.829Z,41.70
2022-12-23T16:29:48.558Z,55.55
2022-12-23T16:32:48.831Z,56.20
2022-12-23T16:35:42.785Z,53.22
2022-12-23T16:38:31.145Z,46.22
2022-12-23T16:41:20.177Z,44.72
2022-12-23T16:44:08.327Z,50.65
2022-12-23T16:46:56.390Z,40.88
2022-12-23T16:49:44.326Z,50.55
2022-12-23T16:52:32.641Z,50.92
2022-12-23T16:55:20.936Z,16.10
2022-12-23T16:58:08.873Z,37.35
2022-12-23T17:00:57.107Z,46.17
2022-12-23T17:03:44.981Z,23.60
2022-12-23T17:06:33.862Z,18.38
2022-12-23T17:09:21.874Z,14.73
2022-12-23T17:12:10.524Z,18.30
2022-12-23T17:14:58.822Z,24.77
2022-12-23T17:17:49.025Z,34.03
2022-12-23T17:20:36.953Z,37.17
2022-12-23T17:23:32.915Z,40.15
2022-12-23T17:26:20.800Z,37.72
2022-12-23T17:29:11.875Z,35.42
2022-12-23T17:31:59.873Z,34.75
2022-12-23T17:34:48.665Z,46.20
2022-12-23T17:37:40.889Z,46.17
2022-12-23T17:40:29.965Z,44.20
2022-12-23T17:43:19.027Z,49.05
2022-12-23T17:46:13.469Z,40.10
2022-12-23T17:49:01.423Z,31.13
2022-12-23T17:51:49.445Z,29.52
2022-12-23T17:54:37.299Z,28.88
2022-12-23T17:57:27.209Z,28.38
2022-12-23T18:00:22.668Z,25.75
2022-12-23T18:03:24.103Z,23.60
2022-12-23T18:06:21.731Z,32.28
2022-12-23T18:09:10.235Z,28.83
2022-12-23T18:11:58.869Z,28.67
2022-12-23T18:14:47.115Z,28.58
2022-12-23T18:17:35.259Z,27.73
2022-12-23T18:20:24.148Z,21.98
2022-12-23T18:23:17.367Z,19.45
2022-12-23T18:26:07.102Z,13.43
2022-12-23T18:29:01.064Z,16.52
2022-12-23T18:31:52.247Z,12.32
2022-12-23T18:34:40.599Z,18.35
2022-12-23T18:37:29.122Z,11.15
2022-12-23T18:40:17.843Z,9.48
2022-12-23T18:43:06.566Z,9.95
2022-12-23T18:45:55.662Z,11.93
2022-12-23T18:48:43.979Z,12.65
2022-12-23T18:51:37.806Z,9.90
2022-12-23T18:54:25.735Z,8.20
2022-12-23T18:57:13.957Z,9.13
2022-12-23T19:00:02.236Z,9.82
2022-12-23T19:02:53.066Z,7.70
2022-12-23T19:05:43.301Z,9.77
2022-12-23T19:08:31.587Z,10.43
2022-12-23T19:11:20.905Z,7.95
2022-12-23T19:14:11.272Z,8.82
2022-12-23T19:17:00.362Z,10.32
2022-12-23T19:19:48.359Z,7.13
2022-12-23T19:22:39.217Z,8.75
2022-12-23T19:25:30.209Z,7.90
2022-12-23T19:28:18.479Z,8.60
2022-12-23T19:31:11.736Z,7.70
2022-12-23T19:34:00.614Z,12.63
2022-12-23T19:36:48.775Z,6.85
2022-12-23T19:39:59.547Z,11.05
2022-12-23T19:42:50.548Z,8.65
2022-12-23T19:46:12.933Z,10.00
2022-12-23T19:48:59.791Z,11.82
2022-12-23T19:51:48.627Z,10.13
2022-12-23T19:55:06.817Z,8.93
2022-12-23T19:57:54.853Z,10.65
2022-12-23T20:00:43.095Z,14.13
2022-12-23T20:03:31.370Z,9.10
2022-12-23T20:06:31.195Z,11.73
2022-12-23T20:10:23.058Z,12.95
2022-12-23T20:12:33.658Z,16.15
2022-12-23T20:15:22.413Z,14.05
2022-12-23T20:18:10.502Z,10.85
2022-12-23T20:21:04.648Z,16.42
2022-12-23T20:27:14.815Z,21.45
2022-12-23T20:34:19.501Z,13.48
2022-12-23T20:37:20.195Z,18.40
2022-12-23T20:40:36.669Z,12.65
2022-12-23T20:43:38.916Z,15.45
2022-12-23T20:46:27.227Z,19.90
2022-12-23T20:49:20.448Z,19.90
2022-12-23T20:52:15.933Z,16.25
2022-12-23T20:55:12.277Z,17.25
2022-12-23T20:58:23.535Z,14.05
2022-12-23T21:01:18.226Z,23.25
2022-12-23T21:04:21.419Z,12.63
2022-12-23T21:07:14.062Z,15.30
2022-12-23T21:10:15.743Z,12.05
2022-12-23T21:13:20.460Z,15.13
2022-12-23T21:16:59.562Z,18.08
2022-12-23T21:19:58.317Z,12.52
2022-12-23T21:22:48.835Z,15.13
2022-12-23T21:25:37.465Z,9.27
2022-12-23T21:28:34.471Z,9.45
2022-12-23T21:31:36.731Z,10.07
2022-12-23T21:35:06.164Z,13.20
2022-12-23T21:38:32.441Z,7.68
2022-12-23T21:45:51.141Z,12.85
2022-12-23T21:55:51.093Z,11.85
